Terminal Aerodrome Forecast
Issued by NWS

Home | Current Version | Previous Version | Text Only | Print | Product List | Glossary On
Versions: 1 2 3 4 5 6 7 8 9 10 11 12 13 14 15 16 17 18 19
000
FTUS42 KILM 211131
TAFCRE
TAF
KCRE 211131Z 2112/2212 10004KT 4SM BR VCSH OVC070
      TEMPO 2112/2114 2SM BR SCT007 BKN025
     FM211600 15006KT P6SM VCSH SCT007 OVC012
     FM212300 20007KT 4SM BR VCSH OVC007
     FM220300 21005KT 1SM BR OVC003=

USA.gov is the U.S. government's official web portal to all federal, state and local government web resources and services.